createdAt,value
2016-04-05T00:00:46.264Z,15.03
2016-04-05T00:01:46.141Z,15.08
2016-04-05T00:02:46.176Z,15.03
2016-04-05T00:03:46.085Z,15.11
2016-04-05T00:04:46.103Z,15.09
2016-04-05T00:05:46.074Z,15.03
2016-04-05T00:06:46.063Z,15.03
2016-04-05T00:07:46.033Z,15.06
2016-04-05T00:08:45.974Z,15.03
2016-04-05T00:09:45.991Z,15.03
2016-04-05T00:10:45.963Z,15.05
2016-04-05T00:11:45.951Z,15.11
2016-04-05T00:12:45.890Z,15.05
2016-04-05T00:13:45.909Z,15.03
2016-04-05T00:14:45.833Z,15.05
2016-04-05T00:15:45.820Z,15.09
2016-04-05T00:16:45.901Z,15.06
2016-04-05T00:17:44.981Z,15.11
2016-04-05T00:18:45.751Z,15.06
2016-04-05T00:19:45.737Z,15.05
2016-04-05T00:20:45.756Z,15.08
2016-04-05T00:21:45.712Z,15.06
2016-04-05T00:22:45.698Z,14.99
2016-04-05T00:23:45.733Z,15.06
2016-04-05T00:24:45.735Z,15.03
2016-04-05T00:25:45.613Z,15.11
2016-04-05T00:26:45.616Z,15.09
2016-04-05T00:27:44.790Z,15.03
2016-04-05T00:28:45.543Z,15.13
2016-04-05T00:29:45.530Z,15.15
2016-04-05T00:30:45.564Z,15.08
2016-04-05T00:31:45.567Z,15.02
2016-04-05T00:32:45.461Z,15.09
2016-04-05T00:33:45.416Z,15.11
2016-04-05T00:34:45.622Z,15.11
2016-04-05T00:35:45.421Z,15.12
2016-04-05T00:36:45.361Z,15.03
2016-04-05T00:37:45.223Z,15.02
2016-04-05T00:38:45.335Z,15.08
2016-04-05T00:39:45.307Z,15.11
2016-04-05T00:40:45.263Z,15.03
2016-04-05T00:41:45.282Z,15.11
2016-04-05T00:42:45.237Z,15.05
2016-04-05T00:43:45.208Z,15.03
2016-04-05T00:44:45.195Z,15.11
2016-04-05T00:45:45.323Z,14.99
2016-04-05T00:46:45.154Z,15.08
2016-04-05T00:47:45.125Z,15.03
2016-04-05T00:48:45.112Z,15.08
2016-04-05T00:49:45.083Z,15.06
2016-04-05T00:50:45.039Z,15.03
2016-04-05T00:51:45.042Z,15.05
2016-04-05T00:52:45.060Z,15.08
2016-04-05T00:53:45.017Z,15.08
2016-04-05T00:54:44.987Z,15.05
2016-04-05T00:55:44.928Z,15.05
2016-04-05T00:56:44.993Z,15.02
2016-04-05T00:57:44.902Z,15.02
2016-04-05T00:58:45.077Z,14.99
2016-04-05T00:59:44.969Z,15.03
2016-04-05T01:00:44.863Z,14.94
2016-04-05T01:01:44.913Z,14.98
2016-04-05T01:02:44.916Z,15.06
2016-04-05T01:03:44.778Z,15.06
2016-04-05T01:04:44.765Z,14.91
2016-04-05T01:05:44.783Z,14.94
2016-04-05T01:06:45.645Z,14.98
2016-04-05T01:07:44.663Z,14.94
2016-04-05T01:08:44.744Z,14.91
2016-04-05T01:09:44.607Z,14.87
2016-04-05T01:10:44.624Z,14.88
2016-04-05T01:11:44.612Z,14.93
2016-04-05T01:12:44.535Z,14.93
2016-04-05T01:13:44.538Z,14.87
2016-04-05T01:14:44.604Z,14.91
2016-04-05T01:15:44.497Z,14.99
2016-04-05T01:16:44.484Z,14.93
2016-04-05T01:17:44.487Z,14.94
2016-04-05T01:18:44.424Z,14.93
2016-04-05T01:19:44.443Z,14.88
2016-04-05T01:20:44.384Z,14.87
2016-04-05T01:21:44.339Z,14.93
2016-04-05T01:22:44.326Z,14.88
2016-04-05T01:23:44.328Z,14.94
2016-04-05T01:24:44.284Z,14.91
2016-04-05T01:25:44.272Z,14.86
2016-04-05T01:26:44.242Z,14.88
2016-04-05T01:27:44.277Z,14.8
2016-04-05T01:28:44.217Z,14.87
2016-04-05T01:29:44.235Z,14.78
2016-04-05T01:30:44.222Z,14.78
2016-04-05T01:31:44.116Z,14.78
2016-04-05T01:32:44.119Z,14.75
2016-04-05T01:33:44.106Z,14.78
2016-04-05T01:35:44.174Z,14.87
2016-04-05T01:36:44.004Z,14.87
2016-04-05T01:37:43.975Z,14.86
2016-04-05T01:38:43.963Z,14.78
2016-04-05T01:39:43.949Z,14.87
2016-04-05T01:40:43.922Z,14.8
2016-04-05T01:41:43.893Z,14.78
2016-04-05T01:42:43.880Z,14.8
2016-04-05T01:43:43.399Z,14.87
2016-04-05T01:44:44.057Z,14.78
2016-04-05T01:45:43.987Z,14.8
2016-04-05T01:46:45.030Z,14.83
2016-04-05T01:47:43.795Z,14.74
2016-04-05T01:48:45.385Z,14.78
2016-04-05T01:49:43.932Z,14.74
2016-04-05T01:50:43.748Z,14.75
2016-04-05T01:51:43.703Z,14.84
2016-04-05T01:52:43.643Z,14.84
2016-04-05T01:53:43.803Z,14.78
2016-04-05T01:54:43.601Z,14.8
2016-04-05T01:55:43.590Z,14.78
2016-04-05T01:56:43.561Z,14.8
2016-04-05T01:57:43.376Z,14.81
2016-04-05T01:58:43.503Z,14.83
2016-04-05T01:59:42.756Z,14.78
2016-04-05T02:00:43.462Z,14.72
2016-04-05T02:01:43.450Z,14.72
2016-04-05T02:02:43.514Z,14.69
2016-04-05T02:03:43.439Z,14.71
2016-04-05T02:04:43.411Z,14.71
2016-04-05T02:05:43.398Z,14.78
2016-04-05T02:06:43.370Z,14.72
2016-04-05T02:07:43.392Z,14.74
2016-04-05T02:08:43.380Z,14.67
2016-04-05T02:09:43.242Z,14.71
2016-04-05T02:10:43.603Z,14.65
2016-04-05T02:11:43.247Z,14.65
2016-04-05T02:12:42.374Z,14.71
2016-04-05T02:13:43.658Z,14.81
2016-04-05T02:14:43.458Z,14.67
2016-04-05T02:15:43.148Z,14.75
2016-04-05T02:16:43.229Z,14.69
2016-04-05T02:17:42.918Z,14.64
2016-04-05T02:18:43.062Z,14.64
2016-04-05T02:19:43.065Z,14.69
2016-04-05T02:20:43.037Z,14.71
2016-04-05T02:21:43.071Z,14.67
2016-04-05T02:22:43.073Z,14.67
2016-04-05T10:48:05.450Z,17.74
2016-04-05T10:49:05.469Z,17.67
2016-04-05T10:51:05.505Z,17.53
2016-04-05T10:52:05.774Z,17.44
2016-04-05T10:53:06.119Z,17.36
2016-04-05T10:54:05.326Z,17.43
2016-04-05T10:55:06.328Z,17.29
2016-04-05T10:56:05.191Z,17.3
2016-04-05T10:57:05.302Z,17.3
2016-04-05T10:58:05.602Z,17.29
2016-04-05T10:59:05.261Z,17.13
2016-04-05T11:00:19.733Z,17.17
2016-04-05T11:01:05.173Z,17
2016-04-05T11:02:05.098Z,16.9
2016-04-05T11:03:05.115Z,16.86
2016-04-05T11:04:05.057Z,16.81
2016-04-05T11:05:05.449Z,16.67
2016-04-05T11:06:19.843Z,16.63
2016-04-05T11:07:05.143Z,16.53
2016-04-05T11:08:05.417Z,16.48
2016-04-05T11:09:05.098Z,16.34
2016-04-05T11:10:04.992Z,16.38
2016-04-05T11:11:04.182Z,16.34
2016-04-05T11:12:18.747Z,16.33
2016-04-05T11:13:18.984Z,16.23
2016-04-05T11:14:04.956Z,16.33
2016-04-05T11:15:04.928Z,16.27
2016-04-05T11:16:05.071Z,16.25
2016-04-05T11:17:04.761Z,16.31
2016-04-05T11:18:19.295Z,16.38
2016-04-05T11:19:03.923Z,16.37
2016-04-05T11:20:04.925Z,16.44
2016-04-05T11:21:04.772Z,16.5
2016-04-05T11:22:05.009Z,16.63
2016-04-05T11:23:05.184Z,16.68
2016-04-05T11:24:18.514Z,16.63
2016-04-05T11:25:04.688Z,16.8
2016-04-05T11:26:04.566Z,16.75
2016-04-05T11:27:04.975Z,16.67
2016-04-05T11:28:04.103Z,16.67
2016-04-05T11:29:04.887Z,16.75
2016-04-05T11:30:18.593Z,16.59
2016-04-05T11:31:04.642Z,16.62
2016-04-05T11:32:04.630Z,16.55
2016-04-05T11:33:04.460Z,16.53
2016-04-05T11:34:04.479Z,16.44
2016-04-05T11:35:04.466Z,16.35
2016-04-05T11:36:04.468Z,16.35
2016-04-05T11:37:04.299Z,16.4
2016-04-05T11:38:03.614Z,16.38
2016-04-05T11:39:04.273Z,16.23
2016-04-05T11:40:04.932Z,16.23
2016-04-05T11:41:18.059Z,16.23
2016-04-05T11:42:04.250Z,16.25
2016-04-05T11:43:04.752Z,16.2
2016-04-05T11:44:04.286Z,16.16
2016-04-05T11:45:04.195Z,16.16
2016-04-05T11:46:04.181Z,16.11
2016-04-05T11:47:04.404Z,16.14
2016-04-05T11:48:04.109Z,16
2016-04-05T11:49:03.362Z,16.12
2016-04-05T11:50:04.036Z,16.03
2016-04-05T11:51:04.100Z,16.01
2016-04-05T11:52:07.548Z,16.03
2016-04-05T11:53:04.166Z,16.01
2016-04-05T12:00:04.101Z,16.04
2016-04-05T12:00:36.429Z,16.12
2016-04-05T12:01:35.631Z,16.11
2016-04-05T12:02:36.414Z,16.06
2016-04-05T12:03:36.338Z,16.09
2016-04-05T12:04:36.371Z,16.12
2016-04-05T12:05:50.122Z,16.22
2016-04-05T12:06:36.546Z,16.15
2016-04-05T12:07:35.423Z,16.12
2016-04-05T12:08:37.675Z,16.07
2016-04-05T12:09:35.412Z,16.15
2016-04-05T12:11:36.229Z,16.11
2016-04-05T12:12:36.342Z,16.09
2016-04-05T12:13:36.266Z,16.09
2016-04-05T12:14:36.159Z,16.09
2016-04-05T12:15:36.318Z,16.07
2016-04-05T12:16:36.414Z,16.2
2016-04-05T12:17:36.214Z,16.2
2016-04-05T12:18:37.248Z,16.09
2016-04-05T12:19:36.189Z,16.07
2016-04-05T12:20:37.691Z,16.11
2016-04-05T12:21:36.209Z,16.09
2016-04-05T12:22:35.977Z,16.07
2016-04-05T12:23:36.168Z,16.18
2016-04-05T12:24:36.905Z,16.26
2016-04-05T12:25:36.892Z,16.26
2016-04-05T12:26:36.269Z,16.25
2016-04-05T12:27:36.007Z,16.22
2016-04-05T12:28:39.743Z,16.27
2016-04-05T12:29:36.028Z,16.2
2016-04-05T12:30:35.780Z,16.2
2016-04-05T12:31:35.940Z,16.26
2016-04-05T12:32:35.332Z,16.22
2016-04-05T12:33:35.804Z,16.27
2016-04-05T12:34:36.009Z,16.23
2016-04-05T12:35:35.637Z,16.25
2016-04-05T12:36:36.406Z,16.22
2016-04-05T12:37:35.799Z,16.22
2016-04-05T12:38:35.630Z,16.26
2016-04-05T12:39:36.274Z,16.27
2016-04-05T12:40:35.542Z,16.25
2016-04-05T12:41:35.981Z,16.2
2016-04-05T12:42:35.562Z,16.16
2016-04-05T12:43:36.018Z,16.16
2016-04-05T12:44:35.834Z,16.25
2016-04-05T12:45:35.634Z,16.33
2016-04-05T12:46:35.636Z,16.31
2016-04-05T12:47:35.450Z,16.4
2016-04-05T12:48:35.501Z,16.5
2016-04-05T12:49:35.926Z,16.5
2016-04-05T12:50:35.662Z,16.52
2016-04-05T12:51:35.447Z,16.53
2016-04-05T12:52:35.731Z,16.49
2016-04-05T12:53:35.499Z,16.35
2016-04-05T12:54:35.548Z,16.35
2016-04-05T12:55:35.269Z,16.25
2016-04-05T12:56:35.397Z,16.26
2016-04-05T12:57:35.227Z,16.18
2016-04-05T12:58:35.122Z,16.14
2016-04-05T12:59:35.140Z,16.03
2016-04-05T13:00:35.126Z,15.97
2016-04-05T13:01:35.176Z,15.94
2016-04-05T13:02:35.163Z,15.81
2016-04-05T13:03:35.071Z,15.85
2016-04-05T13:04:35.106Z,15.78
2016-04-05T13:05:34.984Z,15.6
2016-04-05T13:06:35.001Z,15.68
2016-04-05T13:07:35.004Z,15.61
2016-04-05T13:08:35.055Z,15.56
2016-04-05T13:09:34.057Z,15.6
2016-04-05T13:10:38.154Z,15.54
2016-04-05T13:11:34.937Z,15.51
2016-04-05T13:12:34.971Z,15.39
2016-04-05T13:13:34.803Z,15.46
2016-04-05T13:14:34.977Z,15.46
2016-04-05T13:15:34.964Z,15.41
2016-04-05T13:16:35.122Z,15.43
2016-04-05T13:17:34.735Z,15.42
2016-04-05T13:18:34.737Z,15.39
2016-04-05T13:19:34.881Z,15.42
2016-04-05T13:20:35.586Z,15.38
2016-04-05T13:21:34.870Z,15.41
2016-04-05T13:22:34.702Z,15.43
2016-04-05T13:23:34.955Z,15.43
2016-04-05T13:24:34.597Z,15.54
2016-04-05T13:25:34.553Z,15.52
2016-04-05T13:26:34.540Z,15.52
2016-04-05T13:27:34.512Z,15.61
2016-04-05T13:28:34.452Z,15.54
2016-04-05T13:29:34.516Z,15.59
2016-04-05T13:30:34.441Z,15.64
2016-04-05T13:31:35.132Z,15.51
2016-04-05T13:32:34.400Z,15.67
2016-04-05T13:33:34.528Z,15.64
2016-04-05T13:34:34.874Z,15.61
2016-04-05T13:35:34.424Z,15.57
2016-04-05T13:36:34.411Z,15.57
2016-04-05T13:37:34.304Z,15.64
2016-04-05T13:38:34.463Z,15.6
2016-04-05T13:39:34.356Z,15.6
2016-04-05T13:40:34.563Z,15.61
2016-04-05T13:41:34.784Z,15.57
2016-04-05T13:42:34.193Z,15.57
2016-04-05T13:43:34.351Z,15.57
2016-04-05T13:44:34.479Z,15.57
2016-04-05T13:45:34.264Z,15.64
2016-04-05T13:46:34.267Z,15.59
2016-04-05T13:47:34.691Z,15.54
2016-04-05T13:48:34.303Z,15.39
2016-04-05T13:49:34.118Z,15.42
2016-04-05T13:50:34.042Z,15.39
2016-04-05T13:51:37.045Z,15.49
2016-04-05T13:52:33.438Z,15.46
2016-04-05T13:53:34.395Z,15.43
2016-04-05T13:54:33.897Z,15.48
2016-04-05T13:55:33.900Z,15.42
2016-04-05T13:56:48.261Z,15.42
2016-04-05T13:57:34.155Z,15.38
2016-04-05T13:58:33.814Z,15.42
2016-04-05T13:59:33.894Z,15.33
2016-04-05T14:00:33.772Z,15.27
2016-04-05T14:01:33.744Z,15.21
2016-04-05T14:02:33.966Z,15.2
2016-04-05T14:03:33.749Z,15.19
2016-04-05T14:04:33.690Z,15.06
2016-04-05T14:05:33.863Z,15.11
2016-04-05T14:06:33.710Z,15.08
2016-04-05T14:07:36.807Z,15.12
2016-04-05T14:08:34.169Z,15.09
2016-04-05T14:09:33.624Z,15.24
2016-04-05T14:10:33.643Z,15.33
2016-04-05T14:11:33.552Z,15.31
2016-04-05T14:12:33.601Z,15.3
2016-04-05T14:13:33.573Z,15.28
2016-04-05T14:14:33.591Z,15.31
2016-04-05T14:15:33.423Z,15.31
2016-04-05T14:16:33.425Z,15.38
2016-04-05T14:17:33.537Z,15.38
2016-04-05T14:18:33.758Z,15.39
2016-04-05T14:19:33.667Z,15.43
2016-04-05T14:20:47.200Z,15.42
2016-04-05T14:21:33.719Z,15.36
2016-04-05T14:22:33.894Z,15.39
2016-04-05T14:23:33.959Z,15.45
2016-04-05T14:24:47.540Z,15.42
2016-04-05T14:25:33.386Z,15.49
2016-04-05T14:26:33.217Z,15.46
2016-04-05T14:27:33.297Z,15.43
2016-04-05T14:28:33.144Z,15.43
2016-04-05T14:29:33.178Z,15.48
2016-04-05T14:30:33.150Z,15.46
2016-04-05T14:31:33.215Z,15.48
2016-04-05T14:32:46.921Z,15.46
2016-04-05T14:33:33.127Z,15.45
2016-04-05T14:34:33.160Z,15.41
2016-04-05T14:35:33.194Z,15.39
2016-04-05T14:36:33.244Z,15.52
2016-04-05T14:37:32.982Z,15.43
2016-04-05T14:38:33.000Z,15.46
2016-04-05T14:39:33.049Z,15.51
2016-04-05T14:40:32.880Z,15.42
2016-04-05T14:41:32.867Z,15.39
2016-04-05T14:42:32.932Z,15.54
2016-04-05T14:43:46.887Z,15.46
2016-04-05T14:44:32.923Z,15.46
2016-04-05T14:45:32.846Z,15.39
2016-04-05T14:46:33.006Z,15.42
2016-04-05T14:47:33.211Z,15.35
2016-04-05T14:48:32.808Z,15.35
2016-04-05T14:49:32.920Z,15.24
2016-04-05T14:50:32.892Z,15.27
2016-04-05T14:51:32.832Z,15.26
2016-04-05T14:52:32.678Z,15.26
2016-04-05T14:53:32.650Z,15.28
2016-04-05T14:54:33.074Z,15.15
2016-04-05T14:55:32.545Z,15.24
2016-04-05T14:56:32.579Z,15.24
2016-04-05T14:57:32.489Z,15.24
2016-04-05T14:58:32.819Z,15.27
2016-04-05T14:59:33.244Z,15.31
2016-04-05T15:00:32.497Z,15.39
2016-04-05T15:01:32.702Z,15.39
2016-04-05T15:02:32.455Z,15.46
2016-04-05T15:03:32.832Z,15.46
2016-04-05T15:04:32.601Z,15.39
2016-04-05T15:05:32.478Z,15.54
2016-04-05T15:06:32.637Z,15.52
2016-04-05T15:07:32.671Z,15.57
2016-04-05T15:08:32.549Z,15.57
2016-04-05T15:09:32.458Z,15.66
2016-04-05T15:10:46.695Z,15.57
2016-04-05T15:11:32.682Z,15.63
2016-04-05T15:12:33.482Z,15.57
2016-04-05T15:13:32.532Z,15.6
2016-04-05T15:14:32.487Z,15.63
2016-04-05T15:15:32.990Z,15.56
2016-04-05T15:16:32.148Z,15.56
2016-04-05T15:17:34.042Z,15.59
2016-04-05T15:18:33.716Z,15.57
2016-04-05T15:19:32.703Z,15.54
2016-04-05T15:20:33.034Z,15.59
2016-04-05T15:21:32.350Z,15.56
2016-04-05T15:22:32.634Z,15.57
2016-04-05T15:23:33.074Z,15.6
2016-04-05T15:24:32.748Z,15.61
2016-04-05T15:25:32.548Z,15.52
2016-04-05T15:26:33.175Z,15.49
2016-04-05T15:27:32.678Z,15.39
2016-04-05T15:28:33.102Z,15.42
2016-04-05T15:29:32.261Z,15.39
2016-04-05T15:30:32.046Z,15.42
2016-04-05T15:31:45.814Z,15.39
2016-04-05T15:32:31.755Z,15.35
2016-04-05T15:33:31.835Z,15.42
2016-04-05T15:34:31.963Z,15.41
2016-04-05T15:35:31.965Z,15.38
2016-04-05T15:36:31.655Z,15.39
2016-04-05T15:37:31.627Z,15.39
2016-04-05T15:38:31.770Z,15.33
2016-04-05T15:39:31.585Z,15.38
2016-04-05T15:40:31.604Z,15.21
2016-04-05T15:41:31.779Z,15.24
2016-04-05T15:42:31.813Z,15.28
2016-04-05T15:43:31.893Z,15.12
2016-04-05T15:44:32.505Z,15.2
2016-04-05T15:45:31.446Z,15.11
2016-04-05T15:46:31.995Z,15.13
2016-04-05T15:47:31.357Z,15.21
2016-04-05T15:48:31.579Z,15.15
2016-04-05T15:49:31.504Z,15.11
2016-04-05T15:50:31.334Z,15.12
2016-04-05T15:51:31.274Z,15.17
2016-04-05T15:52:31.293Z,15.17
2016-04-05T15:53:31.248Z,15.11
2016-04-05T15:54:31.220Z,15.17
2016-04-05T15:55:45.067Z,15.12
2016-04-05T15:56:31.412Z,15.03
2016-04-05T15:57:31.228Z,15.11
2016-04-05T15:58:31.137Z,15.11
2016-04-05T15:59:31.124Z,15.11
2016-04-05T16:00:31.111Z,14.98
2016-04-05T16:01:31.097Z,14.91
2016-04-05T16:02:31.116Z,15.05
2016-04-05T16:03:30.994Z,15.02
2016-04-05T16:04:30.980Z,14.94
2016-04-05T16:05:31.233Z,14.87
2016-04-05T16:06:31.111Z,14.98
2016-04-05T16:07:31.114Z,14.94
2016-04-05T16:08:30.929Z,14.83
2016-04-05T16:09:30.932Z,14.75
2016-04-05T16:10:30.950Z,14.78
2016-04-05T16:11:30.890Z,14.72
2016-04-05T16:12:31.018Z,14.74
2016-04-05T16:13:30.896Z,14.68
2016-04-05T16:14:30.945Z,14.65
2016-04-05T16:15:30.885Z,14.62
2016-04-05T16:16:31.232Z,14.61
2016-04-05T16:17:31.140Z,14.6
2016-04-05T16:18:44.534Z,14.53
2016-04-05T16:19:30.678Z,14.56
2016-04-05T16:20:30.742Z,14.5
2016-04-05T16:21:30.792Z,14.46
2016-04-05T16:22:30.592Z,14.47
2016-04-05T16:23:30.689Z,14.42
2016-04-05T16:24:30.566Z,14.38
2016-04-05T16:25:30.647Z,14.39
2016-04-05T16:26:30.728Z,14.32
2016-04-05T16:27:31.042Z,14.37
2016-04-05T16:28:30.452Z,14.37
2016-04-05T16:29:30.486Z,14.29
2016-04-05T16:30:31.363Z,14.29
2016-04-05T16:31:30.522Z,14.17
2016-04-05T16:32:30.556Z,14.25
2016-04-05T16:33:30.496Z,14.19
2016-04-05T16:34:30.311Z,14.14
2016-04-05T16:35:30.299Z,14.16
2016-04-05T16:36:30.316Z,14.16
2016-04-05T16:37:30.272Z,14.14
2016-04-05T16:38:30.229Z,14.21
2016-04-05T16:39:30.341Z,14.21
2016-04-05T16:40:30.312Z,14.16
2016-04-05T16:41:30.255Z,14.2
2016-04-05T16:42:43.976Z,14.31
2016-04-05T16:43:29.541Z,14.25
2016-04-05T16:44:43.919Z,14.2
2016-04-05T16:45:30.109Z,14.27
2016-04-05T16:46:30.268Z,14.2
2016-04-05T16:47:44.224Z,14.29
2016-04-05T16:48:30.226Z,14.31
2016-04-05T16:50:30.154Z,14.32
2016-04-05T16:51:30.204Z,14.28
2016-04-05T16:52:30.222Z,14.27
2016-04-05T16:53:30.021Z,14.31
2016-04-05T16:54:30.306Z,14.25
2016-04-05T16:55:30.074Z,14.25
2016-04-05T16:56:30.217Z,14.27
2016-04-05T16:58:30.034Z,14.27
2016-04-05T16:59:44.334Z,14.34
2016-04-05T17:00:30.134Z,14.24
2016-04-05T17:01:29.715Z,14.28
2016-04-05T17:02:30.078Z,14.28
2016-04-05T17:03:29.658Z,14.21
2016-04-05T17:04:29.723Z,14.32
2016-04-05T17:05:43.788Z,14.34
2016-04-05T17:06:29.650Z,14.32
2016-04-05T17:07:29.669Z,14.27
2016-04-05T17:08:29.499Z,14.32
2016-04-05T17:09:29.581Z,14.28
2016-04-05T17:10:29.489Z,14.24
2016-04-05T17:11:30.227Z,14.25
2016-04-05T17:12:29.558Z,14.31
2016-04-05T17:13:29.513Z,14.35
2016-04-05T17:14:29.469Z,14.37
2016-04-05T17:15:29.393Z,14.24
2016-04-05T17:16:29.396Z,14.34
2016-04-05T17:17:29.226Z,14.32
2016-04-05T17:18:29.307Z,14.43
2016-04-05T17:19:29.326Z,14.46
2016-04-05T17:20:29.281Z,14.46
2016-04-05T17:21:29.254Z,14.46
2016-04-05T17:22:29.209Z,14.53
2016-04-05T17:23:29.368Z,14.53
2016-04-05T17:24:29.198Z,14.52
2016-04-05T17:25:29.201Z,14.6
2016-04-05T17:26:28.376Z,14.6
2016-04-05T17:27:29.238Z,14.62
2016-04-05T17:28:29.178Z,14.71
2016-04-05T17:29:29.150Z,14.65
2016-04-05T17:30:29.183Z,14.65
2016-04-05T17:31:28.983Z,14.74
2016-04-05T17:32:29.017Z,14.71
2016-04-05T17:33:28.973Z,14.83
2016-04-05T17:34:28.975Z,14.83
2016-04-05T17:35:29.009Z,14.81
2016-04-05T17:36:28.966Z,14.84
2016-04-05T17:37:28.905Z,14.83
2016-04-05T17:38:28.878Z,14.86
2016-04-05T17:39:42.770Z,14.81
2016-04-05T17:40:28.992Z,14.72
2016-04-05T17:41:28.932Z,14.83
2016-04-05T17:42:29.200Z,14.72
2016-04-05T17:43:28.891Z,14.83
2016-04-05T17:44:29.377Z,14.75
2016-04-05T17:45:28.693Z,14.75
2016-04-05T17:46:28.710Z,14.84
2016-04-05T17:47:29.042Z,14.81
2016-04-05T17:48:28.748Z,14.69
2016-04-05T17:49:28.766Z,14.75
2016-04-05T17:50:28.706Z,14.69
2016-04-05T17:51:28.584Z,14.67
2016-04-05T17:52:28.993Z,14.69
2016-04-05T17:53:28.526Z,14.71
2016-04-05T17:54:28.623Z,14.61
2016-04-05T17:55:29.031Z,14.61
2016-04-05T17:56:28.784Z,14.52
2016-04-05T17:57:28.943Z,14.52
2016-04-05T17:58:28.509Z,14.62
2016-04-05T17:59:42.934Z,14.47
2016-04-05T18:00:28.592Z,14.39
2016-04-05T18:01:28.454Z,14.37
2016-04-05T18:02:28.331Z,14.38
2016-04-05T18:03:28.351Z,14.38
2016-04-05T18:04:28.587Z,14.38
2016-04-05T18:05:28.262Z,14.27
2016-04-05T18:06:28.577Z,14.31
2016-04-05T18:07:28.205Z,14.31
2016-04-05T18:08:28.191Z,14.28
2016-04-05T18:09:28.147Z,14.21
2016-04-05T18:10:28.271Z,14.19
2016-04-05T18:11:28.148Z,14.16
2016-04-05T18:12:28.151Z,14.04
2016-04-05T18:13:28.170Z,14.02
2016-04-05T18:14:28.031Z,14.02
2016-04-05T18:15:27.988Z,14.07
2016-04-05T18:16:27.958Z,14.09
2016-04-05T18:17:28.149Z,13.96
2016-04-05T18:18:28.245Z,13.98
2016-04-05T18:19:27.888Z,14.01
2016-04-05T18:20:27.860Z,13.92
2016-04-05T18:21:27.862Z,13.89
2016-04-05T18:22:30.865Z,13.88
2016-04-05T18:23:27.821Z,13.89
2016-04-05T18:24:27.871Z,13.88
2016-04-05T18:25:28.701Z,13.91
2016-04-05T18:26:27.704Z,13.89
2016-04-05T18:27:27.706Z,13.87
2016-04-05T18:28:27.725Z,13.92
2016-04-05T18:29:27.915Z,13.74
2016-04-05T18:30:27.778Z,13.74
2016-04-05T18:31:27.795Z,13.7
2016-04-05T18:32:27.596Z,13.8
2016-04-05T18:33:27.786Z,13.69
2016-04-05T18:34:27.539Z,13.74
2016-04-05T18:35:27.619Z,13.76
2016-04-05T18:36:27.512Z,13.76
2016-04-05T18:37:27.656Z,13.74
2016-04-05T18:38:27.425Z,13.69
2016-04-05T18:39:27.412Z,13.65
2016-04-05T18:40:27.414Z,13.59
2016-04-05T18:41:27.370Z,13.62
2016-04-05T18:42:27.403Z,13.59
2016-04-05T18:43:27.469Z,13.56
2016-04-05T18:44:27.315Z,13.56
2016-04-05T18:45:27.380Z,13.56
2016-04-05T18:46:27.274Z,13.59
2016-04-05T18:48:27.295Z,13.59
2016-04-05T18:49:27.313Z,13.62
2016-04-05T18:50:27.425Z,13.58
2016-04-05T18:51:27.177Z,13.61
2016-04-05T18:52:27.212Z,13.55
2016-04-05T18:53:27.260Z,13.51
2016-04-05T18:54:27.357Z,13.46
2016-04-05T18:55:27.141Z,13.47
2016-04-05T18:56:27.363Z,13.44
2016-04-05T18:57:27.194Z,13.44
2016-04-05T18:58:26.993Z,13.51
2016-04-05T18:59:26.981Z,13.44
2016-04-05T19:00:26.983Z,13.51
2016-04-05T19:01:27.611Z,13.46
2016-04-05T19:02:26.895Z,13.51
2016-04-05T19:03:40.730Z,13.49
2016-04-05T19:04:26.859Z,13.4
2016-04-05T19:05:27.220Z,13.47
2016-04-05T19:06:27.286Z,13.47
2016-04-05T19:07:26.803Z,13.47
2016-04-05T19:08:25.551Z,13.44
2016-04-05T19:09:26.850Z,13.51
2016-04-05T19:10:40.666Z,13.46
2016-04-05T19:11:26.809Z,13.52
2016-04-05T19:12:26.922Z,13.52
2016-04-05T19:13:26.737Z,13.51
2016-04-05T19:14:26.631Z,13.49
2016-04-05T19:15:40.555Z,13.47
2016-04-05T19:16:26.605Z,13.46
2016-04-05T19:17:26.575Z,13.47
2016-04-05T19:18:26.641Z,13.47
2016-04-05T19:19:26.565Z,13.54
2016-04-05T19:20:26.552Z,13.56
2016-04-05T19:21:26.555Z,13.52
2016-04-05T19:22:26.620Z,13.55
2016-04-05T19:23:26.499Z,13.44
2016-04-05T19:24:26.235Z,13.52
2016-04-05T19:25:26.519Z,13.52
2016-04-05T19:26:26.553Z,13.54
2016-04-05T19:27:26.493Z,13.56
2016-04-05T19:28:26.387Z,13.52
2016-04-05T19:29:26.482Z,13.59
2016-04-05T19:30:26.502Z,13.56
2016-04-05T19:31:26.754Z,13.54
2016-04-05T19:32:26.413Z,13.56
2016-04-05T19:33:26.197Z,13.65
2016-04-05T19:34:26.262Z,13.54
2016-04-05T19:35:26.281Z,13.59
2016-04-05T19:36:26.080Z,13.56
2016-04-05T19:37:26.176Z,13.54
2016-04-05T19:38:26.194Z,13.56
2016-04-05T19:39:26.354Z,13.49
2016-04-05T19:40:26.075Z,13.49
2016-04-05T19:41:25.203Z,13.47
2016-04-05T19:43:26.145Z,13.51
2016-04-05T19:44:26.070Z,13.51
2016-04-05T19:45:26.010Z,13.51
2016-04-05T19:46:25.888Z,13.49
2016-04-05T19:47:29.234Z,13.49
2016-04-05T19:48:25.143Z,13.46
2016-04-05T19:49:26.131Z,13.41
2016-04-05T19:50:25.789Z,13.41
2016-04-05T19:52:27.202Z,13.43
2016-04-05T19:53:25.751Z,13.41
2016-04-05T19:54:25.769Z,13.33
2016-04-05T19:55:25.740Z,13.22
2016-04-05T19:56:26.072Z,13.37
2016-04-05T19:57:25.715Z,13.3
2016-04-05T19:58:25.593Z,13.29
2016-04-05T19:59:39.438Z,13.21
2016-04-05T20:00:25.566Z,13.25
2016-04-05T20:01:25.569Z,13.24
2016-04-05T20:02:25.618Z,13.22
2016-04-05T20:03:25.668Z,13.21
2016-04-05T20:04:25.451Z,13.21
2016-04-05T20:05:25.595Z,13.2
2016-04-05T20:06:27.598Z,13.17
2016-04-05T20:07:25.648Z,13.2
2016-04-05T20:08:25.526Z,13.18
2016-04-05T20:09:25.497Z,13.15
2016-04-05T20:10:25.426Z,13.17
2016-04-05T20:11:25.303Z,13.21
2016-04-05T20:12:25.603Z,13.14
2016-04-05T20:13:25.434Z,13.07
2016-04-05T20:14:25.047Z,13.09
2016-04-05T20:15:25.253Z,13.06
2016-04-05T20:16:25.192Z,13.03
2016-04-05T20:17:25.492Z,13.14
2016-04-05T20:18:25.151Z,13.07
2016-04-05T20:19:25.294Z,13.04
2016-04-05T20:20:25.452Z,13.06
2016-04-05T20:21:25.049Z,13
2016-04-05T20:22:25.115Z,13
2016-04-05T20:23:25.414Z,12.99
2016-04-05T20:24:25.277Z,12.99
2016-04-05T20:25:24.966Z,13.04
2016-04-05T20:26:25.032Z,13.02
2016-04-05T20:27:24.878Z,13.03
2016-04-05T20:28:24.990Z,12.99
2016-04-05T20:29:24.899Z,13.04
2016-04-05T20:30:24.839Z,13
2016-04-05T20:31:24.795Z,13.02
2016-04-05T20:32:24.781Z,12.95
2016-04-05T20:33:24.769Z,12.92
2016-04-05T20:34:24.740Z,12.92
2016-04-05T20:35:24.728Z,12.87
2016-04-05T20:36:24.700Z,13.02
2016-04-05T20:37:24.734Z,12.97
2016-04-05T20:38:24.658Z,12.97
2016-04-05T20:39:24.645Z,12.88
2016-04-05T20:40:24.632Z,12.89
2016-04-05T20:41:24.870Z,12.89
2016-04-05T20:42:24.747Z,12.87
2016-04-05T20:43:23.703Z,12.85
2016-04-05T20:44:24.517Z,12.85
2016-04-05T20:45:24.474Z,12.87
2016-04-05T20:46:24.492Z,12.87
2016-04-05T20:47:24.479Z,12.89
2016-04-05T20:48:24.466Z,12.85
2016-04-05T20:49:24.645Z,12.85
2016-04-05T20:50:24.398Z,12.82
2016-04-05T20:51:24.588Z,12.84
2016-04-05T20:52:24.262Z,12.77
2016-04-05T20:53:24.344Z,12.7
2016-04-05T20:54:24.284Z,12.77
2016-04-05T20:55:24.209Z,12.74
2016-04-05T20:56:24.257Z,12.78
2016-04-05T20:57:24.194Z,12.78
2016-04-05T20:58:24.582Z,12.87
2016-04-05T20:59:24.266Z,12.84
2016-04-05T21:00:24.279Z,12.88
2016-04-05T21:01:24.323Z,12.75
2016-04-05T21:02:24.435Z,12.82
2016-04-05T21:03:38.005Z,12.77
2016-04-05T21:04:24.375Z,12.78
2016-04-05T21:05:24.040Z,12.78
2016-04-05T21:06:24.448Z,12.75
2016-04-05T21:07:25.597Z,12.75
2016-04-05T21:08:24.623Z,12.79
2016-04-05T21:09:24.336Z,12.77
2016-04-05T21:10:24.299Z,12.82
2016-04-05T21:11:24.247Z,12.81
2016-04-05T21:12:24.239Z,12.89
2016-04-05T21:13:38.041Z,12.92
2016-04-05T21:14:24.202Z,12.87
2016-04-05T21:15:24.239Z,12.84
2016-04-05T21:16:24.135Z,12.85
2016-04-05T21:17:24.124Z,12.89
2016-04-05T21:18:24.331Z,12.85
2016-04-05T21:19:23.647Z,12.89
2016-04-05T21:20:24.151Z,12.87
2016-04-05T21:21:24.030Z,12.95
2016-04-05T21:22:24.002Z,12.85
2016-04-05T21:23:23.989Z,12.85
2016-04-05T21:24:37.773Z,12.96
2016-04-05T21:25:24.012Z,12.93
2016-04-05T21:26:23.874Z,12.82
2016-04-05T21:27:27.346Z,12.96
2016-04-05T21:28:23.879Z,12.97
2016-04-05T21:29:23.820Z,12.89
2016-04-05T21:30:23.806Z,12.84
2016-04-05T21:31:23.825Z,12.89
2016-04-05T21:32:23.843Z,12.87